Time;durP1;ratioP1;P1;durP2;ratioP2;P2;SDS_P1;SDS_P2;PMS_P1;PMS_P2;Temp;Humidity;BMP_temperature;BMP_pressure;BME280_temperature;BME280_humidity;BME280_pressure;Samples;Min_cycle;Max_cycle;Signal;HPM_P1;HPM_P2
2021/07/21 00:00:52;;;;;;;11.20;7.07;;;;;;;18.71;49.92;102150.88;4909805;28;116902;-75
2021/07/21 00:03:20;;;;;;;12.68;7.28;;;;;;;18.68;49.74;102153.75;4926417;28;118729;-75
2021/07/21 00:05:48;;;;;;;11.70;7.20;;;;;;;18.63;49.91;102155.84;4925528;28;123999;-75
2021/07/21 00:08:16;;;;;;;11.95;7.45;;;;;;;18.57;50.08;102161.56;4931383;28;123766;-75
2021/07/21 00:10:45;;;;;;;12.82;7.30;;;;;;;18.53;50.11;102154.63;4927202;28;119005;-75
2021/07/21 00:13:29;;;;;;;12.43;7.57;;;;;;;18.49;50.16;102154.81;4906022;28;118395;-75
2021/07/21 00:16:10;;;;;;;12.25;7.18;;;;;;;18.45;50.15;102158.63;4920821;28;124600;-75
2021/07/21 00:21:09;;;;;;;12.57;7.50;;;;;;;18.42;50.49;102161.50;4925646;28;119071;-75
2021/07/21 00:23:38;;;;;;;13.18;7.45;;;;;;;18.40;50.24;102155.34;4900722;28;118344;-75
2021/07/21 00:26:06;;;;;;;10.93;6.93;;;;;;;18.38;50.50;102151.00;4900686;28;124242;-74
2021/07/21 00:28:39;;;;;;;11.73;7.25;;;;;;;18.38;50.54;102146.50;4911734;28;123862;-73
2021/07/21 00:31:07;;;;;;;11.38;7.07;;;;;;;18.34;50.45;102150.31;4911748;28;119467;-74
2021/07/21 00:33:35;;;;;;;12.25;7.40;;;;;;;18.33;50.54;102153.09;4913226;28;118687;-74
2021/07/21 00:36:03;;;;;;;13.60;7.28;;;;;;;18.29;50.58;102147.06;4911984;28;124115;-74
2021/07/21 00:38:30;;;;;;;13.07;7.55;;;;;;;18.25;50.48;102134.75;4912256;28;124369;-74
2021/07/21 00:40:57;;;;;;;12.02;7.32;;;;;;;18.22;50.81;102129.59;4909854;28;119351;-74
2021/07/21 00:43:27;;;;;;;13.50;7.95;;;;;;;18.19;50.83;102135.09;4911079;28;119473;-74
2021/07/21 00:45:55;;;;;;;14.52;8.15;;;;;;;18.16;50.72;102129.91;4922023;28;124183;-74
2021/07/21 00:48:23;;;;;;;12.77;7.97;;;;;;;18.14;50.95;102126.44;4909602;28;123885;-74
2021/07/21 00:50:54;;;;;;;14.27;7.82;;;;;;;18.12;51.11;102128.34;4911767;28;120121;-74
2021/07/21 00:53:22;;;;;;;12.27;7.63;;;;;;;18.08;51.13;102136.59;4910268;28;118901;-74
2021/07/21 00:55:51;;;;;;;15.88;8.25;;;;;;;18.06;51.08;102141.19;4911590;28;123793;-74
2021/07/21 00:58:18;;;;;;;17.50;8.27;;;;;;;18.03;51.28;102146.69;4910808;28;123995;-74
2021/07/21 01:00:46;;;;;;;13.95;7.90;;;;;;;18.01;51.36;102147.75;4910327;28;118824;-74
2021/07/21 01:03:14;;;;;;;15.52;8.27;;;;;;;17.99;51.49;102142.47;4894092;28;118520;-74
2021/07/21 01:05:42;;;;;;;12.73;7.90;;;;;;;17.98;51.27;102143.41;4909432;28;123579;-74
2021/07/21 01:08:12;;;;;;;13.50;7.70;;;;;;;17.96;51.38;102144.44;4920281;28;123045;-74
2021/07/21 01:11:27;;;;;;;11.90;7.18;;;;;;;17.93;51.39;102142.78;4896299;28;119692;-74
2021/07/21 01:14:08;;;;;;;;;;;;;;;17.90;50.74;102146.50;4908891;28;119414;-74
2021/07/21 01:16:43;;;;;;;12.48;7.75;;;;;;;17.89;50.89;102143.91;4910746;28;123332;-74
2021/07/21 01:19:29;;;;;;;11.55;7.47;;;;;;;17.86;50.93;102133.38;4910284;28;123040;-74
2021/07/21 01:22:15;;;;;;;13.00;7.50;;;;;;;17.85;51.04;102143.19;4909495;28;119304;-74
2021/07/21 01:25:17;;;;;;;13.15;7.40;;;;;;;17.80;51.03;102145.25;4910371;28;118124;-74
2021/07/21 01:28:06;;;;;;;13.90;7.43;;;;;;;17.77;51.05;102145.41;4907620;28;124477;-74
2021/07/21 01:30:47;;;;;;;12.95;7.72;;;;;;;17.75;51.19;102146.47;4909056;28;123614;-74
2021/07/21 01:33:16;;;;;;;13.90;7.82;;;;;;;17.71;51.45;102145.75;4908350;28;119256;-74
2021/07/21 01:35:53;;;;;;;13.40;8.27;;;;;;;17.67;51.67;102150.41;4909081;28;119926;-74
2021/07/21 01:38:33;;;;;;;13.68;8.35;;;;;;;17.65;51.54;102141.59;4892969;28;123356;-74
2021/07/21 01:41:11;;;;;;;13.70;7.38;;;;;;;17.63;51.70;102156.91;4897573;28;124548;-74
2021/07/21 01:43:44;;;;;;;12.07;7.57;;;;;;;17.62;51.70;102149.78;4908445;28;119413;-74
2021/07/21 01:46:12;;;;;;;13.70;7.45;;;;;;;17.61;51.71;102150.75;4909380;28;117303;-74
2021/07/21 01:48:45;;;;;;;11.57;7.18;;;;;;;17.58;51.74;102150.91;4909673;28;124907;-74
2021/07/21 01:51:15;;;;;;;13.13;7.93;;;;;;;17.58;51.79;102150.06;4928949;28;123457;-74
2021/07/21 01:53:44;;;;;;;11.75;7.50;;;;;;;17.56;51.72;102147.44;4914978;28;120081;-74
2021/07/21 01:56:15;;;;;;;12.75;7.65;;;;;;;17.54;51.81;102152.03;4896202;28;118619;-74
2021/07/21 01:58:46;;;;;;;13.25;7.72;;;;;;;17.53;51.73;102158.31;4888912;28;123558;-74
2021/07/21 02:01:20;;;;;;;;;;;;;;;17.50;51.30;102147.78;4909101;28;123449;-74
2021/07/21 02:03:48;;;;;;;13.73;8.38;;;;;;;17.50;51.59;102153.16;4909040;28;118484;-74
2021/07/21 02:06:25;;;;;;;15.48;7.97;;;;;;;17.47;51.80;102159.50;4896059;28;121996;-74
2021/07/21 02:08:55;;;;;;;14.43;7.80;;;;;;;17.46;51.94;102159.59;4904325;28;124357;-74
2021/07/21 02:11:27;;;;;;;12.70;7.90;;;;;;;17.43;52.27;102165.97;4895644;28;123957;-74
2021/07/21 02:13:58;;;;;;;16.60;8.48;;;;;;;17.42;52.46;102160.69;4907549;28;119257;-74
2021/07/21 02:16:35;;;;;;;12.10;7.95;;;;;;;17.40;52.34;102157.25;4908387;28;118668;-74
2021/07/21 02:19:06;;;;;;;13.85;7.65;;;;;;;17.35;52.40;102159.28;4908415;28;122807;-74
2021/07/21 02:21:47;;;;;;;14.02;7.70;;;;;;;17.33;52.44;102167.44;4911440;28;124036;-74
2021/07/21 02:24:15;;;;;;;16.73;8.38;;;;;;;17.32;52.54;102168.34;4885356;28;119787;-74
2021/07/21 02:27:03;;;;;;;15.23;7.70;;;;;;;17.28;52.25;102159.63;4908073;28;120144;-74
2021/07/21 02:29:30;;;;;;;13.07;7.35;;;;;;;17.24;52.51;102158.06;4907090;28;124184;-74
2021/07/21 02:32:11;;;;;;;14.63;8.43;;;;;;;17.19;52.45;102160.09;4914604;28;125088;-74
2021/07/21 02:34:43;;;;;;;12.05;7.72;;;;;;;17.16;52.53;102165.63;4913801;28;117767;-74
2021/07/21 02:37:19;;;;;;;13.85;7.22;;;;;;;17.12;52.52;102162.25;4888377;28;119212;-74
2021/07/21 02:39:50;;;;;;;13.40;7.85;;;;;;;17.11;52.60;102167.66;4902198;28;124296;-74
2021/07/21 02:42:18;;;;;;;12.73;7.53;;;;;;;17.08;52.68;102165.13;4908766;28;123993;-74
2021/07/21 02:44:49;;;;;;;13.43;7.88;;;;;;;17.07;52.79;102166.94;4908226;28;119449;-74
2021/07/21 02:47:20;;;;;;;14.13;7.35;;;;;;;17.05;52.96;102162.63;4909579;28;119223;-74
2021/07/21 02:49:53;;;;;;;12.93;7.53;;;;;;;17.02;52.90;102163.63;4907637;28;123194;-74
2021/07/21 02:52:31;;;;;;;13.20;8.00;;;;;;;17.01;53.06;102161.03;4895916;28;124095;-74
2021/07/21 02:55:17;;;;;;;13.07;7.88;;;;;;;17.01;52.92;102155.69;4893898;28;119366;-74
2021/07/21 02:57:56;;;;;;;14.02;7.75;;;;;;;17.01;52.93;102161.03;4901087;28;118939;-74
2021/07/21 03:00:26;;;;;;;15.85;7.88;;;;;;;17.01;52.94;102161.03;4903017;28;124698;-74
2021/07/21 03:03:10;;;;;;;14.20;7.47;;;;;;;17.02;53.04;102162.78;4908223;28;123066;-74
2021/07/21 03:05:43;;;;;;;12.98;7.72;;;;;;;17.02;52.94;102162.78;4907277;28;118602;-74
2021/07/21 03:08:21;;;;;;;11.88;7.13;;;;;;;17.00;52.89;102165.53;4908480;28;118608;-74
2021/07/21 03:10:57;;;;;;;12.07;7.68;;;;;;;17.00;53.05;102159.31;4904156;28;123537;-74
2021/07/21 03:13:33;;;;;;;15.60;7.63;;;;;;;16.99;53.34;102157.56;4883856;28;124051;-74
2021/07/21 03:16:03;;;;;;;11.07;7.13;;;;;;;16.99;53.09;102168.28;4915371;28;119605;-74
2021/07/21 03:18:52;;;;;;;13.13;8.05;;;;;;;16.98;52.99;102166.56;4913848;28;120288;-74
2021/07/21 03:21:26;;;;;;;14.75;7.78;;;;;;;16.97;52.96;102168.38;4888603;28;123889;-74
2021/07/21 03:24:04;;;;;;;15.07;8.07;;;;;;;16.98;53.04;102174.59;4896721;28;123311;-74
2021/07/21 03:26:54;;;;;;;13.07;7.80;;;;;;;16.97;52.86;102175.53;4906396;28;118746;-74
2021/07/21 03:29:31;;;;;;;11.90;7.07;;;;;;;16.96;53.10;102184.50;4909549;28;120018;-74
2021/07/21 03:32:05;;;;;;;14.10;8.23;;;;;;;16.95;53.17;102177.41;4902497;28;122270;-74
2021/07/21 03:34:36;;;;;;;14.05;8.18;;;;;;;16.93;53.41;102181.06;4913794;28;124391;-74
2021/07/21 03:37:09;;;;;;;13.48;7.80;;;;;;;16.95;53.24;102182.75;4904736;28;118704;-74
2021/07/21 03:39:59;;;;;;;13.13;7.75;;;;;;;16.92;53.11;102179.31;4887564;28;119208;-74
2021/07/21 03:42:45;;;;;;;13.65;7.55;;;;;;;16.91;53.07;102174.91;4901758;28;125284;-74
2021/07/21 03:45:22;;;;;;;14.77;7.78;;;;;;;16.90;53.27;102181.19;4879253;28;123009;-74
2021/07/21 03:47:50;;;;;;;12.35;7.63;;;;;;;16.90;53.27;102186.53;4909742;28;118454;-74
2021/07/21 03:50:21;;;;;;;12.63;7.90;;;;;;;16.88;53.27;102183.09;4910321;28;118466;-74
2021/07/21 03:52:52;;;;;;;12.80;7.55;;;;;;;16.87;53.21;102189.38;4910581;28;123388;-74
2021/07/21 03:55:25;;;;;;;13.02;7.57;;;;;;;16.87;53.32;102184.00;4893783;28;124119;-74
2021/07/21 03:58:19;;;;;;;12.95;7.40;;;;;;;16.85;53.24;102183.22;4922371;28;119886;-74
2021/07/21 04:00:58;;;;;;;12.98;7.95;;;;;;;16.83;53.32;102179.75;4897465;28;118446;-74
2021/07/21 04:03:39;;;;;;;14.63;7.93;;;;;;;16.82;53.18;102186.06;4912197;28;121881;-74
2021/07/21 04:06:09;;;;;;;12.80;7.45;;;;;;;16.81;53.47;102183.44;4911504;28;124029;-75
2021/07/21 04:08:56;;;;;;;13.48;7.75;;;;;;;16.80;53.37;102179.00;4897029;28;119429;-74
2021/07/21 04:11:28;;;;;;;11.88;7.18;;;;;;;16.80;53.36;102184.38;4910887;28;120323;-74
2021/07/21 04:14:00;;;;;;;12.48;7.60;;;;;;;16.78;53.44;102181.75;4891549;28;124586;-74
2021/07/21 04:17:05;;;;;;;11.65;7.15;;;;;;;16.78;53.36;102183.56;4925809;28;124092;-74
2021/07/21 04:19:35;;;;;;;13.35;7.78;;;;;;;16.77;53.49;102189.88;4911541;28;119553;-74
2021/07/21 04:22:03;;;;;;;13.73;7.72;;;;;;;16.78;53.58;102189.78;4892348;28;118805;-74
2021/07/21 04:24:32;;;;;;;12.40;7.28;;;;;;;16.78;53.65;102192.47;4910428;28;123404;-74
2021/07/21 04:27:03;;;;;;;10.55;7.15;;;;;;;16.78;54.02;102194.28;4912311;28;124160;-74
2021/07/21 04:29:32;;;;;;;12.88;7.25;;;;;;;16.79;53.97;102199.56;4910257;28;118477;-74
2021/07/21 04:32:03;;;;;;;11.50;6.78;;;;;;;16.81;54.08;102197.66;4894268;28;118574;-74
2021/07/21 04:34:31;;;;;;;10.13;6.80;;;;;;;16.83;54.16;102195.81;4905801;28;122791;-74
2021/07/21 04:36:59;;;;;;;12.32;7.45;;;;;;;16.84;54.10;102192.22;4902409;28;123736;-74
2021/07/21 04:39:46;;;;;;;15.65;7.43;;;;;;;16.88;54.00;102192.94;4910019;28;118670;-74
2021/07/21 04:42:31;;;;;;;13.07;6.80;;;;;;;16.89;54.11;102195.50;4912281;28;120333;-74
2021/07/21 04:45:00;;;;;;;12.18;7.10;;;;;;;16.91;54.34;102204.34;4897030;28;123197;-74
2021/07/21 04:47:27;;;;;;;11.52;7.22;;;;;;;16.93;54.39;102202.47;4906760;28;123106;-74
2021/07/21 04:49:58;;;;;;;12.70;7.50;;;;;;;16.98;54.46;102209.38;4908380;28;119127;-74
2021/07/21 04:52:27;;;;;;;14.05;7.85;;;;;;;17.02;54.40;102210.97;4910374;28;118358;-74
2021/07/21 04:54:54;;;;;;;14.82;7.55;;;;;;;17.05;54.54;102217.03;4895929;28;123243;-74
2021/07/21 04:57:23;;;;;;;16.05;8.25;;;;;;;17.07;54.67;102215.13;4901944;28;123929;-74
2021/07/21 05:00:00;;;;;;;18.85;9.05;;;;;;;17.13;54.66;102214.81;4906795;28;119729;-74
2021/07/21 05:02:42;;;;;;;20.55;8.57;;;;;;;17.18;54.85;102208.34;4909691;28;119571;-74
2021/07/21 05:05:11;;;;;;;18.90;8.38;;;;;;;17.23;55.10;102212.53;4907702;28;123494;-74
2021/07/21 05:07:43;;;;;;;21.83;9.20;;;;;;;17.29;54.98;102220.28;4909576;28;122799;-74
2021/07/21 05:10:17;;;;;;;15.40;8.40;;;;;;;17.34;55.11;102221.84;4896435;28;119140;-74
2021/07/21 05:12:46;;;;;;;18.25;8.75;;;;;;;17.40;55.34;102224.19;4884663;28;119010;-74
2021/07/21 05:15:17;;;;;;;16.63;9.32;;;;;;;17.47;55.31;102228.28;4893079;28;123624;-74
2021/07/21 05:17:49;;;;;;;20.02;9.75;;;;;;;17.54;55.20;102235.06;4908797;28;123958;-74
2021/07/21 05:20:23;;;;;;;21.17;9.75;;;;;;;17.60;55.42;102234.75;4909408;28;118928;-74
2021/07/21 05:23:06;;;;;;;20.60;10.38;;;;;;;17.67;55.39;102235.31;4910368;28;118582;-74
2021/07/21 05:25:40;;;;;;;19.83;9.83;;;;;;;17.73;55.46;102239.47;4908702;28;123935;-74
2021/07/21 05:28:26;;;;;;;23.02;10.32;;;;;;;17.79;55.50;102233.78;4911043;28;124660;-74
2021/07/21 05:30:57;;;;;;;24.30;10.63;;;;;;;17.85;55.50;102238.84;4909519;28;118805;-74
2021/07/21 05:33:25;;;;;;;22.88;11.00;;;;;;;17.91;55.71;102238.50;4910198;28;118665;-74
2021/07/21 05:35:52;;;;;;;23.23;10.60;;;;;;;18.00;55.71;102243.38;4906349;28;123931;-74
2021/07/21 05:38:26;;;;;;;23.58;10.90;;;;;;;18.08;56.17;102242.94;4901135;28;124236;-74
2021/07/21 05:40:53;;;;;;;19.08;10.25;;;;;;;18.17;55.93;102244.28;4910123;28;118937;-74
2021/07/21 05:43:29;;;;;;;19.20;10.07;;;;;;;18.26;55.84;102255.34;4910491;28;118267;-74
2021/07/21 05:46:03;;;;;;;20.25;10.77;;;;;;;18.36;56.06;102250.34;4909155;28;123346;-74
2021/07/21 05:48:36;;;;;;;18.25;11.18;;;;;;;18.46;56.12;102251.59;4909505;28;123141;-74
2021/07/21 05:51:22;;;;;;;20.67;11.65;;;;;;;18.54;56.22;102253.84;4910737;28;120782;-74
2021/07/21 05:53:56;;;;;;;20.45;11.88;;;;;;;18.62;56.26;102261.44;4909528;28;119106;-74
2021/07/21 05:56:26;;;;;;;20.73;11.88;;;;;;;18.69;56.19;102257.47;4911347;28;123621;-74
2021/07/21 05:58:58;;;;;;;20.02;12.05;;;;;;;18.78;56.41;102262.31;4909363;28;123434;-74
2021/07/21 06:01:28;;;;;;;23.02;12.60;;;;;;;18.88;56.45;102264.50;4912738;28;120089;-74
2021/07/21 06:03:57;;;;;;;20.55;12.68;;;;;;;18.96;56.48;102259.56;4918114;28;118948;-74
2021/07/21 06:06:34;;;;;;;21.38;12.90;;;;;;;19.03;56.43;102263.63;4910224;28;124684;-74
2021/07/21 06:09:20;;;;;;;21.02;11.90;;;;;;;19.12;56.46;102254.13;4922181;28;124770;-74
2021/07/21 06:11:55;;;;;;;20.52;12.45;;;;;;;19.20;56.37;102260.81;4909374;28;119330;-74
2021/07/21 06:14:23;;;;;;;19.55;11.63;;;;;;;19.29;56.15;102259.41;4909255;28;118251;-74
2021/07/21 06:16:57;;;;;;;21.75;12.30;;;;;;;19.37;56.36;102259.81;4907838;28;124271;-74
2021/07/21 06:19:29;;;;;;;18.88;12.18;;;;;;;19.47;56.23;102260.13;4908792;28;123459;-74
2021/07/21 06:21:58;;;;;;;20.48;11.93;;;;;;;19.59;56.29;102264.75;4910890;28;118582;-74
2021/07/21 06:24:47;;;;;;;20.65;11.88;;;;;;;19.72;56.31;102264.91;4910675;28;119687;-74
2021/07/21 06:27:26;;;;;;;20.58;11.65;;;;;;;19.85;56.31;102259.63;4922971;28;123641;-74
2021/07/21 06:29:58;;;;;;;20.05;12.00;;;;;;;19.99;55.94;102264.16;4919448;28;124195;-74
2021/07/21 06:32:26;;;;;;;21.10;12.07;;;;;;;20.11;55.84;102265.22;4893314;28;119141;-74
2021/07/21 06:34:57;;;;;;;20.02;11.80;;;;;;;20.23;55.89;102269.84;4909898;28;118505;-74
2021/07/21 06:37:24;;;;;;;20.30;11.98;;;;;;;20.35;55.60;102274.44;4908960;28;123493;-74
2021/07/21 06:39:53;;;;;;;18.00;11.15;;;;;;;20.48;55.48;102274.50;4908942;28;123350;-74
2021/07/21 06:42:20;;;;;;;19.40;11.43;;;;;;;20.61;55.49;102280.00;4907627;28;118839;-74
2021/07/21 06:44:52;;;;;;;16.67;10.98;;;;;;;20.72;55.19;102272.09;4909803;28;119971;-74
2021/07/21 06:47:31;;;;;;;18.02;11.07;;;;;;;20.86;54.93;102283.78;4908027;28;123673;-74
2021/07/21 06:50:10;;;;;;;17.38;10.48;;;;;;;21.02;55.16;102284.53;4908739;28;123234;-74
2021/07/21 06:52:38;;;;;;;18.92;10.98;;;;;;;21.17;55.04;102286.19;4908685;28;118307;-74
2021/07/21 06:55:15;;;;;;;17.17;10.55;;;;;;;21.36;55.02;102287.59;4900036;28;119802;-74
2021/07/21 06:57:45;;;;;;;15.82;9.65;;;;;;;21.55;54.78;102287.28;4912092;28;123976;-74
2021/07/21 07:00:38;;;;;;;19.70;10.35;;;;;;;21.80;54.83;102291.84;4904832;28;124160;-74
2021/07/21 07:03:05;;;;;;;16.38;10.13;;;;;;;22.02;54.68;102301.09;4914138;28;118491;-74
2021/07/21 07:05:51;;;;;;;17.33;9.82;;;;;;;22.23;53.88;102298.75;4913598;28;119459;-74
2021/07/21 07:08:44;;;;;;;20.38;10.65;;;;;;;22.42;53.60;102298.31;4912729;28;124625;-74
2021/07/21 07:11:29;;;;;;;16.13;10.02;;;;;;;22.57;53.41;102297.19;4912245;28;124656;-74
2021/07/21 07:13:57;;;;;;;16.45;9.90;;;;;;;22.72;53.50;102296.06;4896212;28;118263;-74
2021/07/21 07:16:24;;;;;;;17.73;10.35;;;;;;;22.89;53.00;102296.66;4924411;28;119082;-74
2021/07/21 07:18:51;;;;;;;15.35;9.52;;;;;;;23.05;52.44;102307.22;4916859;28;123972;-74
2021/07/21 07:21:18;;;;;;;15.27;9.88;;;;;;;23.17;52.66;102289.19;4928539;28;123724;-74
2021/07/21 07:23:52;;;;;;;15.82;9.70;;;;;;;23.33;52.55;102289.78;4912376;28;119848;-74
2021/07/21 07:26:19;;;;;;;14.43;8.73;;;;;;;23.51;51.97;102299.19;4913728;28;118846;-74
2021/07/21 07:28:46;;;;;;;12.82;8.75;;;;;;;23.69;51.40;102296.03;4911072;28;123388;-74
2021/07/21 07:31:13;;;;;;;12.90;8.68;;;;;;;23.85;50.87;102296.59;4913788;28;123949;-74
2021/07/21 07:33:40;;;;;;;13.35;9.25;;;;;;;24.05;50.68;102302.25;4895589;28;119160;-74
2021/07/21 07:36:07;;;;;;;13.48;8.93;;;;;;;24.25;50.30;102301.53;4923391;28;118917;-74
2021/07/21 07:38:34;;;;;;;14.40;9.63;;;;;;;24.43;49.80;102307.34;4911455;28;124197;-74
2021/07/21 07:41:01;;;;;;;14.70;9.70;;;;;;;24.61;49.92;102307.69;4910553;28;123579;-74
2021/07/21 07:43:29;;;;;;;15.65;8.88;;;;;;;24.78;49.44;102305.47;4912121;28;117768;-74
2021/07/21 07:45:57;;;;;;;12.05;8.32;;;;;;;24.98;49.17;102311.94;4910600;28;118969;-74
2021/07/21 07:48:25;;;;;;;12.80;8.10;;;;;;;25.16;49.12;102304.97;4911195;28;123608;-74
2021/07/21 07:50:52;;;;;;;11.55;7.47;;;;;;;25.34;48.13;102302.59;4915310;28;124226;-74
2021/07/21 07:53:19;;;;;;;13.25;8.00;;;;;;;25.47;46.71;102306.97;4914285;28;118898;-74
2021/07/21 07:55:46;;;;;;;11.40;7.30;;;;;;;25.50;45.60;102309.41;4923723;28;118190;-74
2021/07/21 07:58:13;;;;;;;9.43;6.75;;;;;;;25.51;45.37;102303.03;4913583;28;124261;-74
2021/07/21 08:00:41;;;;;;;11.65;6.85;;;;;;;25.56;44.95;102306.16;4913372;28;123207;-74
2021/07/21 08:03:09;;;;;;;10.18;6.32;;;;;;;25.59;44.88;102305.91;4912330;28;119214;-74
2021/07/21 08:05:37;;;;;;;9.90;6.75;;;;;;;25.63;44.07;102297.38;4913797;28;119173;-74
2021/07/21 08:08:05;;;;;;;10.95;6.35;;;;;;;25.66;44.39;102301.69;4909606;28;124538;-74
2021/07/21 08:10:32;;;;;;;11.80;6.72;;;;;;;25.73;43.68;102308.31;4911216;28;124367;-74
2021/07/21 08:12:59;;;;;;;12.18;6.97;;;;;;;25.76;43.75;102313.47;4912008;28;118989;-74
2021/07/21 08:15:27;;;;;;;9.73;5.43;;;;;;;25.79;43.66;102306.94;4913709;28;119359;-74
2021/07/21 08:17:54;;;;;;;9.93;5.22;;;;;;;25.84;43.46;102316.38;4911664;28;124962;-74
2021/07/21 08:20:21;;;;;;;10.52;5.97;;;;;;;25.87;43.41;102314.41;4911868;28;124002;-74
2021/07/21 08:22:48;;;;;;;8.57;5.13;;;;;;;25.90;42.88;102306.84;4913281;28;120546;-74
2021/07/21 08:25:17;;;;;;;11.60;5.05;;;;;;;25.93;43.13;102309.31;4899765;28;120552;-74
2021/07/21 08:27:52;;;;;;;8.40;4.57;;;;;;;25.99;42.50;102316.06;4898948;28;123250;-74
2021/07/21 08:30:19;;;;;;;8.55;5.38;;;;;;;26.01;41.92;102311.34;4912811;28;123726;-74
2021/07/21 08:32:49;;;;;;;7.93;4.90;;;;;;;26.03;41.87;102309.34;4912679;28;118688;-75
2021/07/21 08:35:24;;;;;;;7.18;4.60;;;;;;;26.06;41.92;102314.53;4913300;28;118915;-74
2021/07/21 08:37:51;;;;;;;8.23;4.72;;;;;;;26.11;41.97;102317.72;4923507;28;124452;-74
2021/07/21 08:40:21;;;;;;;7.38;4.45;;;;;;;26.14;41.45;102311.97;4900336;28;124677;-74
2021/07/21 08:42:48;;;;;;;7.68;4.45;;;;;;;26.17;41.34;102314.44;4914782;28;119261;-74
2021/07/21 08:45:16;;;;;;;7.78;4.90;;;;;;;26.18;41.42;102313.47;4930847;28;117818;-74
2021/07/21 08:47:44;;;;;;;10.23;5.13;;;;;;;26.26;41.21;102311.91;4914707;28;124485;-74
2021/07/21 08:50:12;;;;;;;10.45;6.03;;;;;;;26.30;40.65;102321.50;4904365;28;123740;-74
2021/07/21 08:52:40;;;;;;;9.38;6.15;;;;;;;26.31;41.24;102312.34;4891939;28;118608;-74
2021/07/21 08:55:12;;;;;;;8.63;5.53;;;;;;;26.37;41.39;102325.38;4900412;28;119053;-74
2021/07/21 08:57:40;;;;;;;12.25;7.03;;;;;;;26.43;40.75;102322.13;4897788;28;124323;-74
2021/07/21 09:00:14;;;;;;;9.02;5.82;;;;;;;26.43;40.78;102314.00;4910739;28;121921;-74
2021/07/21 09:02:43;;;;;;;10.05;6.07;;;;;;;26.45;41.31;102319.25;4898076;28;120363;-74
2021/07/21 09:05:14;;;;;;;12.05;6.10;;;;;;;26.50;41.60;102320.56;4912174;28;118520;-74
2021/07/21 09:07:41;;;;;;;11.18;6.63;;;;;;;26.56;41.47;102311.00;4911044;28;121920;-74
2021/07/21 09:10:11;;;;;;;10.00;6.22;;;;;;;26.59;40.76;102314.34;4916813;28;124288;-74
2021/07/21 09:12:45;;;;;;;10.65;6.45;;;;;;;26.60;41.06;102307.06;4920375;28;122261;-74
2021/07/21 09:15:15;;;;;;;11.55;5.70;;;;;;;26.65;40.74;102306.63;4917311;28;120677;-74
2021/07/21 09:17:59;;;;;;;10.20;6.00;;;;;;;26.69;40.67;102310.78;4920568;28;124725;-74
2021/07/21 09:20:27;;;;;;;9.55;4.93;;;;;;;26.74;40.65;102305.81;4912487;28;124503;-74
2021/07/21 09:22:56;;;;;;;7.65;4.22;;;;;;;26.78;40.62;102304.53;4924293;28;120010;-74
2021/07/21 09:25:25;;;;;;;9.43;5.10;;;;;;;26.85;40.22;102311.13;4929958;28;117299;-74
2021/07/21 09:27:56;;;;;;;8.57;4.68;;;;;;;26.92;39.99;102312.28;4929981;28;125023;-73
2021/07/21 09:30:27;;;;;;;10.60;5.82;;;;;;;27.00;40.64;102315.16;4930607;28;123735;-74
2021/07/21 09:32:56;;;;;;;9.50;5.35;;;;;;;27.11;40.30;102321.47;4931367;28;118424;-74
2021/07/21 09:35:29;;;;;;;9.73;5.18;;;;;;;27.22;40.04;102318.63;4930693;28;119239;-74
2021/07/21 09:37:58;;;;;;;6.90;4.20;;;;;;;27.33;40.09;102315.78;4917058;28;123328;-75
2021/07/21 09:40:26;;;;;;;8.25;4.68;;;;;;;27.42;39.91;102308.59;4932550;28;126322;-73
2021/07/21 09:42:53;;;;;;;8.07;4.65;;;;;;;27.51;39.08;102315.06;4929789;28;120193;-74
2021/07/21 09:45:20;;;;;;;9.00;4.88;;;;;;;27.57;38.86;102322.63;4927974;28;117395;-73
2021/07/21 09:48:00;;;;;;;8.57;4.90;;;;;;;27.61;38.95;102317.75;4927427;28;122430;-74
2021/07/21 09:50:35;;;;;;;8.52;4.85;;;;;;;27.70;39.29;102323.19;4927550;28;124419;-74
2021/07/21 09:53:07;;;;;;;6.78;4.13;;;;;;;27.84;39.48;102318.28;4930199;28;118919;-74
2021/07/21 09:55:35;;;;;;;8.32;4.90;;;;;;;27.94;38.03;102316.44;4927808;28;117470;-74
2021/07/21 09:58:02;;;;;;;7.47;4.80;;;;;;;28.00;38.55;102318.56;4929294;28;126029;-74
2021/07/21 10:00:29;;;;;;;7.57;5.03;;;;;;;28.03;38.10;102318.28;4927854;28;124560;-74
2021/07/21 10:03:16;;;;;;;8.20;4.63;;;;;;;28.08;38.69;102310.50;4925145;28;121207;-73
2021/07/21 10:06:02;;;;;;;7.35;4.20;;;;;;;28.19;38.60;102316.78;4911525;28;117753;-74
2021/07/21 10:08:35;;;;;;;8.30;4.32;;;;;;;28.27;38.41;102314.16;4926840;28;123467;-74
2021/07/21 10:11:32;;;;;;;6.38;4.13;;;;;;;28.37;37.95;102309.56;4926533;28;124679;-74
2021/07/21 10:14:02;;;;;;;7.50;4.60;;;;;;;28.42;37.22;102311.81;4907171;28;118880;-74
2021/07/21 10:16:53;;;;;;;7.22;4.40;;;;;;;28.42;37.07;102307.19;4909500;28;117275;-74
2021/07/21 10:19:28;;;;;;;6.65;4.30;;;;;;;28.44;37.03;102294.28;4909254;28;123731;-74
2021/07/21 10:22:01;;;;;;;8.25;4.85;;;;;;;28.51;37.52;102306.31;4910877;28;124280;-74
2021/07/21 10:24:32;;;;;;;6.70;4.07;;;;;;;28.59;37.24;102296.53;4908971;28;118437;-74
2021/07/21 10:26:59;;;;;;;7.28;4.75;;;;;;;28.62;37.08;102296.25;4910559;28;119029;-74
2021/07/21 10:29:27;;;;;;;6.75;4.05;;;;;;;28.64;35.96;102299.69;4908254;28;124360;-74
2021/07/21 10:31:55;;;;;;;8.70;4.72;;;;;;;28.64;36.74;102294.22;4909464;28;123847;-74
2021/07/21 10:34:23;;;;;;;11.43;5.00;;;;;;;28.71;36.02;102300.78;4896801;28;118754;-74
2021/07/21 10:36:51;;;;;;;9.20;5.25;;;;;;;28.72;35.38;102302.50;4899497;28;118993;-74
2021/07/21 10:39:28;;;;;;;8.90;4.82;;;;;;;28.66;35.81;102303.09;4893435;28;123861;-74
2021/07/21 10:42:01;;;;;;;9.43;4.93;;;;;;;28.61;36.32;102295.38;4899744;28;124143;-74
2021/07/21 10:44:28;;;;;;;8.05;4.57;;;;;;;28.66;37.06;102297.66;4897979;28;119199;-74
2021/07/21 10:46:55;;;;;;;9.63;4.82;;;;;;;28.68;36.48;102295.63;4920342;28;118932;-74
2021/07/21 10:49:40;;;;;;;7.50;4.93;;;;;;;28.66;35.97;102300.38;4909005;28;123411;-74
2021/07/21 10:52:23;;;;;;;10.43;5.55;;;;;;;28.64;35.75;102296.94;4909608;28;123900;-74
2021/07/21 11:00:30;;;;;;;9.82;5.07;;;;;;;28.73;36.52;102287.84;4899318;28;123989;-74
2021/07/21 11:03:17;;;;;;;9.18;5.00;;;;;;;28.80;35.94;102283.50;4908994;28;124281;-74
2021/07/21 11:05:50;;;;;;;9.10;4.75;;;;;;;28.87;36.16;102291.91;4908436;28;118803;-73
2021/07/21 11:08:22;;;;;;;8.95;5.22;;;;;;;28.94;35.85;102279.38;4908211;28;117598;-74
2021/07/21 11:10:51;;;;;;;7.68;4.72;;;;;;;29.06;35.72;102288.19;4910434;28;123398;-74
2021/07/21 11:13:27;;;;;;;7.85;4.55;;;;;;;29.09;34.93;102285.16;4909158;28;123879;-74
2021/07/21 11:15:55;;;;;;;10.30;5.85;;;;;;;29.05;34.27;102281.03;4918080;28;119363;-74
2021/07/21 11:18:22;;;;;;;10.15;5.40;;;;;;;29.03;34.83;102283.91;4913709;28;119167;-74
2021/07/21 11:21:11;;;;;;;7.68;4.85;;;;;;;29.02;34.98;102284.06;4903746;28;124055;-74
2021/07/21 11:23:51;;;;;;;12.15;6.00;;;;;;;29.03;34.99;102273.00;4902962;28;124014;-74
2021/07/21 11:26:36;;;;;;;8.38;5.57;;;;;;;29.02;35.31;102276.72;4910162;28;120232;-74
2021/07/21 11:29:29;;;;;;;11.20;5.18;;;;;;;29.01;35.79;102274.13;4904792;28;117981;-74
2021/07/21 11:32:03;;;;;;;8.73;5.00;;;;;;;29.04;35.10;102279.28;4896948;28;124484;-74
2021/07/21 11:34:33;;;;;;;7.07;5.05;;;;;;;29.00;34.64;102283.34;4889394;28;123768;-74
2021/07/21 11:37:04;;;;;;;7.97;5.05;;;;;;;29.00;34.98;102277.91;4903194;28;119666;-74
2021/07/21 11:39:56;;;;;;;9.95;5.28;;;;;;;29.05;34.72;102281.03;4959085;23;118591;-74
2021/07/21 11:42:23;;;;;;;9.20;5.50;;;;;;;29.14;35.32;102280.13;4934405;28;124050;-76
2021/07/21 11:44:51;;;;;;;8.77;5.35;;;;;;;29.19;34.84;102277.75;4938812;28;124018;-75